createdAt,value
2022-12-11T00:00:23.836Z,4.14
2022-12-11T00:02:50.591Z,4.15
2022-12-11T00:05:17.566Z,4.10
2022-12-11T00:07:44.444Z,4.12
2022-12-11T00:10:11.111Z,4.11
2022-12-11T00:12:37.682Z,4.09
2022-12-11T00:15:04.593Z,3.98
2022-12-11T00:17:31.260Z,3.99
2022-12-11T00:19:58.012Z,3.97
2022-12-11T00:22:24.591Z,3.92
2022-12-11T00:24:51.819Z,3.90
2022-12-11T00:27:18.612Z,3.89
2022-12-11T00:29:45.263Z,3.91
2022-12-11T00:32:11.860Z,3.91
2022-12-11T00:34:41.002Z,3.88
2022-12-11T00:37:07.896Z,3.91
2022-12-11T00:39:36.524Z,3.86
2022-12-11T00:42:03.172Z,3.83
2022-12-11T00:44:30.267Z,3.85
2022-12-11T00:46:57.041Z,3.76
2022-12-11T00:49:23.792Z,3.80
2022-12-11T00:51:50.438Z,3.76
2022-12-11T00:54:17.073Z,3.71
2022-12-11T00:56:43.828Z,3.73
2022-12-11T00:59:10.415Z,3.72
2022-12-11T01:01:37.329Z,3.75
2022-12-11T01:04:04.168Z,3.78
2022-12-11T01:06:30.801Z,3.72
2022-12-11T01:09:16.548Z,3.75
2022-12-11T01:11:43.847Z,3.70
2022-12-11T01:14:11.524Z,3.67
2022-12-11T01:16:38.468Z,3.60
2022-12-11T01:19:05.295Z,3.58
2022-12-11T01:21:32.205Z,3.62
2022-12-11T01:23:58.941Z,3.61
2022-12-11T01:26:25.759Z,3.56
2022-12-11T01:28:52.730Z,3.56
2022-12-11T01:31:22.458Z,3.54
2022-12-11T01:33:49.112Z,3.58
2022-12-11T01:36:19.517Z,3.50
2022-12-11T01:38:48.680Z,3.50
2022-12-11T01:41:17.203Z,3.50
2022-12-11T01:44:16.510Z,3.45
2022-12-11T01:46:43.760Z,3.44
2022-12-11T01:49:15.511Z,3.37
2022-12-11T01:51:50.364Z,3.34
2022-12-11T01:54:19.337Z,3.30
2022-12-11T01:56:48.495Z,3.29
2022-12-11T01:59:19.207Z,3.34
2022-12-11T02:01:51.269Z,3.37
2022-12-11T02:04:19.060Z,3.39
2022-12-11T02:06:48.997Z,3.39
2022-12-11T02:09:20.400Z,3.40
2022-12-11T02:12:02.085Z,3.42
2022-12-11T02:15:07.851Z,3.39
2022-12-11T02:17:44.588Z,3.39
2022-12-11T02:20:31.740Z,3.37
2022-12-11T02:23:25.919Z,3.36
2022-12-11T02:26:07.748Z,3.37
2022-12-11T02:28:40.337Z,3.36
2022-12-11T02:31:22.336Z,3.35
2022-12-11T02:33:59.714Z,3.35
2022-12-11T02:36:31.743Z,3.31
2022-12-11T02:39:00.596Z,3.32
2022-12-11T02:41:29.700Z,3.33
2022-12-11T02:43:57.989Z,3.27
2022-12-11T02:46:25.994Z,3.31
2022-12-11T02:48:54.451Z,3.30
2022-12-11T02:51:28.764Z,3.29
2022-12-11T02:53:59.193Z,3.32
2022-12-11T02:56:33.193Z,3.31
2022-12-11T02:59:08.984Z,3.25
2022-12-11T03:01:35.760Z,3.30
2022-12-11T03:04:02.949Z,3.23
2022-12-11T03:06:42.238Z,3.26
2022-12-11T03:09:09.116Z,3.25
2022-12-11T03:11:35.862Z,3.29
2022-12-11T03:14:06.030Z,3.32
2022-12-11T03:16:41.877Z,3.33
2022-12-11T03:19:41.675Z,3.30
2022-12-11T03:22:37.316Z,3.28
2022-12-11T03:25:16.448Z,3.29
2022-12-11T03:28:09.831Z,3.28
2022-12-11T03:30:37.401Z,3.26
2022-12-11T03:33:11.290Z,3.24
2022-12-11T03:35:51.449Z,3.22
2022-12-11T03:38:25.305Z,3.20
2022-12-11T03:40:55.652Z,3.21
2022-12-11T03:43:23.295Z,3.19
2022-12-11T03:45:52.924Z,3.18
2022-12-11T03:48:21.496Z,3.22
2022-12-11T03:50:50.818Z,3.22
2022-12-11T03:53:19.180Z,3.21
2022-12-11T03:55:47.658Z,3.19
2022-12-11T03:58:14.501Z,3.15
2022-12-11T04:00:41.192Z,3.13
2022-12-11T04:03:14.539Z,3.11
2022-12-11T04:05:44.191Z,3.11
2022-12-11T04:08:11.126Z,3.06
2022-12-11T04:10:38.003Z,3.09
2022-12-11T04:13:04.838Z,3.07
2022-12-11T04:15:31.867Z,3.07
2022-12-11T04:18:17.142Z,3.03
2022-12-11T04:21:02.581Z,3.01
2022-12-11T04:23:47.971Z,3.02
2022-12-11T04:26:17.761Z,2.98
2022-12-11T04:28:45.953Z,2.94
2022-12-11T04:31:14.376Z,2.93
2022-12-11T04:33:41.475Z,2.89
2022-12-11T04:36:08.878Z,2.86
2022-12-11T04:38:36.210Z,2.85
2022-12-11T04:41:06.637Z,2.82
2022-12-11T04:43:33.754Z,2.80
2022-12-11T04:46:02.421Z,2.82
2022-12-11T04:48:29.078Z,2.83
2022-12-11T04:50:55.755Z,2.83
2022-12-11T04:53:22.412Z,2.82
2022-12-11T04:55:49.309Z,2.79
2022-12-11T04:58:18.139Z,2.81
2022-12-11T05:00:44.744Z,2.76
2022-12-11T05:03:11.728Z,2.75
2022-12-11T05:05:39.170Z,2.74
2022-12-11T05:08:05.978Z,2.75
2022-12-11T05:10:32.680Z,2.79
2022-12-11T05:12:59.840Z,2.77
2022-12-11T05:15:26.596Z,2.75
2022-12-11T05:17:54.083Z,2.79
2022-12-11T05:20:20.939Z,2.79
2022-12-11T05:22:47.616Z,2.75
2022-12-11T05:25:14.500Z,2.76
2022-12-11T05:27:41.195Z,2.71
2022-12-11T05:30:10.402Z,2.70
2022-12-11T05:32:36.990Z,2.72
2022-12-11T05:35:03.918Z,2.74
2022-12-11T05:37:30.501Z,2.78
2022-12-11T05:39:57.244Z,2.80
2022-12-11T05:42:28.648Z,2.79
2022-12-11T05:44:55.811Z,2.74
2022-12-11T05:47:22.763Z,2.76
2022-12-11T05:49:49.397Z,2.76
2022-12-11T05:52:16.746Z,2.67
2022-12-11T05:54:43.601Z,2.72
2022-12-11T05:57:10.423Z,2.66
2022-12-11T05:59:37.424Z,2.70
2022-12-11T06:02:04.214Z,2.73
2022-12-11T06:04:30.912Z,2.72
2022-12-11T06:06:58.199Z,2.74
2022-12-11T06:09:25.358Z,2.73
2022-12-11T06:11:51.971Z,2.74
2022-12-11T06:14:18.729Z,2.70
2022-12-11T06:16:45.604Z,2.71
2022-12-11T06:19:15.073Z,2.74
2022-12-11T06:21:42.180Z,2.66
2022-12-11T06:24:11.452Z,2.70
2022-12-11T06:26:52.476Z,2.62
2022-12-11T06:29:19.070Z,2.66
2022-12-11T06:31:45.785Z,2.64
2022-12-11T06:34:13.993Z,2.56
2022-12-11T06:36:40.946Z,2.57
2022-12-11T06:39:07.638Z,2.62
2022-12-11T06:41:34.294Z,2.57
2022-12-11T06:44:00.984Z,2.61
2022-12-11T06:46:27.850Z,2.60
2022-12-11T06:48:54.623Z,2.63
2022-12-11T06:51:23.161Z,2.65
2022-12-11T06:53:54.414Z,2.60
2022-12-11T06:56:21.925Z,2.61
2022-12-11T06:58:50.564Z,2.60
2022-12-11T07:01:29.998Z,2.64
2022-12-11T07:03:58.772Z,2.64
2022-12-11T07:06:27.775Z,2.59
2022-12-11T07:08:55.173Z,2.58
2022-12-11T07:11:22.939Z,2.59
2022-12-11T07:13:50.486Z,2.57
2022-12-11T07:16:18.238Z,2.58
2022-12-11T07:18:50.165Z,2.57
2022-12-11T07:21:17.283Z,2.60
2022-12-11T07:23:45.182Z,2.64
2022-12-11T07:26:14.773Z,2.64
2022-12-11T07:28:41.648Z,2.67
2022-12-11T07:31:14.655Z,2.75
2022-12-11T07:33:42.263Z,2.71
2022-12-11T07:36:14.334Z,2.73
2022-12-11T07:38:41.983Z,2.74
2022-12-11T07:41:11.694Z,2.69
2022-12-11T07:43:42.180Z,2.63
2022-12-11T07:46:13.305Z,2.67
2022-12-11T07:48:41.848Z,2.65
2022-12-11T07:51:20.461Z,2.65
2022-12-11T07:53:49.217Z,2.67
2022-12-11T07:56:17.570Z,2.63
2022-12-11T07:58:45.041Z,2.59
2022-12-11T08:01:33.643Z,2.63
2022-12-11T08:04:00.728Z,2.64
2022-12-11T08:06:30.711Z,2.60
2022-12-11T08:08:58.781Z,2.60
2022-12-11T08:11:26.172Z,2.65
2022-12-11T08:13:53.741Z,2.63
2022-12-11T08:16:21.170Z,2.65
2022-12-11T08:18:48.173Z,2.57
2022-12-11T08:21:17.709Z,2.59
2022-12-11T08:23:44.777Z,2.59
2022-12-11T08:26:15.420Z,2.57
2022-12-11T08:28:44.720Z,2.45
2022-12-11T08:31:13.865Z,2.46
2022-12-11T08:33:41.966Z,2.40
2022-12-11T08:36:11.498Z,2.45
2022-12-11T08:38:38.929Z,2.42
2022-12-11T08:41:13.679Z,2.50
2022-12-11T08:43:41.194Z,2.52
2022-12-11T08:46:08.757Z,2.55
2022-12-11T08:48:36.961Z,2.56
2022-12-11T08:51:06.130Z,2.57
2022-12-11T08:53:33.781Z,2.56
2022-12-11T08:56:04.875Z,2.51
2022-12-11T08:58:31.492Z,2.51
2022-12-11T09:00:58.219Z,2.56
2022-12-11T09:03:28.561Z,2.53
2022-12-11T09:05:55.091Z,2.51
2022-12-11T09:08:21.691Z,2.51
2022-12-11T09:10:48.387Z,2.54
2022-12-11T09:13:14.932Z,2.54
2022-12-11T09:15:41.969Z,2.51
2022-12-11T09:18:08.968Z,2.49
2022-12-11T09:20:36.027Z,2.46
2022-12-11T09:23:03.136Z,2.41
2022-12-11T09:25:29.848Z,2.40
2022-12-11T09:27:56.463Z,2.38
2022-12-11T09:30:23.091Z,2.36
2022-12-11T09:32:49.715Z,2.36
2022-12-11T09:35:16.412Z,2.39
2022-12-11T09:37:43.301Z,2.38
2022-12-11T09:40:12.303Z,2.35
2022-12-11T09:42:51.196Z,2.40
2022-12-11T09:45:18.184Z,2.46
2022-12-11T09:47:50.194Z,2.43
2022-12-11T09:50:27.645Z,2.47
2022-12-11T09:53:11.185Z,2.46
2022-12-11T09:55:58.981Z,2.43
2022-12-11T09:58:33.440Z,2.49
2022-12-11T10:01:10.102Z,2.49
2022-12-11T10:03:39.395Z,2.49
2022-12-11T10:06:25.962Z,2.48
2022-12-11T10:09:24.491Z,2.53
2022-12-11T10:12:40.114Z,2.51
2022-12-11T10:15:17.308Z,2.56
2022-12-11T10:17:44.862Z,2.59
2022-12-11T10:20:22.703Z,2.64
2022-12-11T10:22:52.059Z,2.64
2022-12-11T10:25:32.212Z,2.66
2022-12-11T10:28:01.252Z,2.67
2022-12-11T10:30:39.659Z,2.73
2022-12-11T10:33:49.192Z,2.70
2022-12-11T10:36:21.022Z,2.66
2022-12-11T10:38:47.665Z,2.71
2022-12-11T10:41:19.013Z,2.69
2022-12-11T10:43:49.904Z,2.70
2022-12-11T10:46:19.532Z,2.66
2022-12-11T10:48:49.271Z,2.75
2022-12-11T10:51:16.300Z,2.78
2022-12-11T10:53:44.724Z,2.82
2022-12-11T10:56:12.538Z,2.82
2022-12-11T10:58:49.243Z,2.75
2022-12-11T11:01:19.164Z,2.73
2022-12-11T11:04:06.964Z,2.78
2022-12-11T11:06:34.300Z,2.76
2022-12-11T11:09:02.199Z,2.78
2022-12-11T11:11:34.443Z,2.78
2022-12-11T11:14:19.250Z,2.77
2022-12-11T11:16:48.068Z,2.72
2022-12-11T11:19:35.073Z,2.69
2022-12-11T11:22:07.039Z,2.71
2022-12-11T11:24:33.616Z,2.70
2022-12-11T11:27:15.974Z,2.67
2022-12-11T11:29:43.354Z,2.62
2022-12-11T11:32:19.937Z,2.64
2022-12-11T11:34:46.575Z,2.63
2022-12-11T11:37:30.272Z,2.66
2022-12-11T11:40:04.365Z,2.66
2022-12-11T11:42:39.857Z,2.67
2022-12-11T11:45:17.640Z,2.66
2022-12-11T11:48:17.879Z,2.63
2022-12-11T11:50:50.510Z,2.57
2022-12-11T11:53:33.741Z,2.60
2022-12-11T11:56:21.479Z,2.56
2022-12-11T11:58:59.294Z,2.55
2022-12-11T12:01:26.843Z,2.58
2022-12-11T12:03:55.546Z,2.63
2022-12-11T12:06:25.674Z,2.67
2022-12-11T12:09:13.131Z,2.69
2022-12-11T12:11:49.913Z,2.73
2022-12-11T12:14:52.339Z,2.75
2022-12-11T12:17:38.881Z,2.76
2022-12-11T12:20:20.950Z,2.70
2022-12-11T12:23:26.147Z,2.67
2022-12-11T12:26:11.373Z,2.67
2022-12-11T12:29:11.144Z,2.66
2022-12-11T12:32:09.811Z,2.70
2022-12-11T12:35:01.886Z,2.67
2022-12-11T12:37:47.192Z,2.69
2022-12-11T12:40:13.999Z,2.67
2022-12-11T12:42:46.726Z,2.67
2022-12-11T12:45:26.329Z,2.67
2022-12-11T12:47:53.993Z,2.64
2022-12-11T12:50:25.072Z,2.64
2022-12-11T12:52:54.482Z,2.58
2022-12-11T12:55:25.159Z,2.57
2022-12-11T12:57:58.423Z,2.59
2022-12-11T13:00:34.824Z,2.53
2022-12-11T13:03:15.501Z,2.49
2022-12-11T13:05:45.051Z,2.51
2022-12-11T13:08:13.357Z,2.44
2022-12-11T13:11:00.951Z,2.48
2022-12-11T13:14:04.744Z,2.50
2022-12-11T13:16:41.140Z,2.53
2022-12-11T13:19:42.314Z,2.39
2022-12-11T13:22:12.472Z,2.37
2022-12-11T13:25:02.965Z,2.41
2022-12-11T13:27:29.503Z,2.34
2022-12-11T13:30:28.836Z,2.34
2022-12-11T13:33:07.506Z,2.35
2022-12-11T13:35:35.721Z,2.32
2022-12-11T13:38:20.701Z,2.33
2022-12-11T13:40:53.821Z,2.39
2022-12-11T13:43:31.156Z,2.40
2022-12-11T13:46:01.312Z,2.38
2022-12-11T13:48:34.818Z,2.36
2022-12-11T13:51:02.721Z,2.39
2022-12-11T13:53:29.720Z,2.37
2022-12-11T13:55:57.906Z,2.36
2022-12-11T13:58:25.227Z,2.29
2022-12-11T14:01:00.316Z,2.30
2022-12-11T14:03:27.772Z,2.32
2022-12-11T14:05:54.943Z,2.31
2022-12-11T14:08:26.505Z,2.33
2022-12-11T14:10:54.218Z,2.33
2022-12-11T14:13:29.309Z,2.27
2022-12-11T14:15:56.100Z,2.20
2022-12-11T14:18:38.875Z,2.18
2022-12-11T14:21:06.749Z,2.18
2022-12-11T14:23:36.708Z,2.10
2022-12-11T14:26:19.653Z,2.03
2022-12-11T14:28:47.183Z,2.02
2022-12-11T14:31:18.661Z,2.02
2022-12-11T14:33:55.347Z,2.03
2022-12-11T14:36:23.212Z,1.98
2022-12-11T14:38:55.876Z,2.00
2022-12-11T14:41:35.304Z,1.98
2022-12-11T14:44:06.743Z,1.97
2022-12-11T14:47:05.752Z,1.93
2022-12-11T14:49:45.392Z,1.95
2022-12-11T14:52:18.589Z,2.00
2022-12-11T14:54:54.213Z,2.00
2022-12-11T14:57:26.643Z,2.04
2022-12-11T14:59:55.315Z,2.07
2022-12-11T15:02:24.339Z,2.05
2022-12-11T15:05:08.110Z,2.09
2022-12-11T15:07:34.677Z,2.12
2022-12-11T15:10:04.521Z,2.09
2022-12-11T15:12:31.973Z,2.06
2022-12-11T15:15:03.177Z,2.09
2022-12-11T15:17:30.805Z,2.09
2022-12-11T15:20:05.464Z,2.11
2022-12-11T15:22:32.864Z,2.09
2022-12-11T15:25:00.323Z,2.09
2022-12-11T15:27:38.724Z,2.10
2022-12-11T15:30:30.547Z,2.11
2022-12-11T15:33:09.438Z,2.11
2022-12-11T15:35:37.785Z,2.08
2022-12-11T15:38:04.977Z,2.01
2022-12-11T15:40:32.144Z,2.01
2022-12-11T15:43:02.204Z,2.04
2022-12-11T15:45:29.467Z,2.04
2022-12-11T15:47:56.674Z,2.09
2022-12-11T15:50:29.079Z,2.09
2022-12-11T15:52:56.925Z,2.11
2022-12-11T15:55:27.298Z,2.11
2022-12-11T15:58:01.368Z,2.10
2022-12-11T16:00:28.403Z,2.06
2022-12-11T16:02:56.989Z,2.03
2022-12-11T16:05:24.371Z,2.03
2022-12-11T16:07:52.324Z,1.94
2022-12-11T16:10:20.728Z,1.97
2022-12-11T16:12:47.719Z,1.99
2022-12-11T16:15:22.829Z,1.97
2022-12-11T16:17:50.469Z,1.99
2022-12-11T16:20:17.591Z,1.96
2022-12-11T16:22:44.763Z,1.99
2022-12-11T16:25:11.974Z,2.02
2022-12-11T16:27:38.850Z,1.98
2022-12-11T16:30:07.425Z,1.93
2022-12-11T16:32:34.068Z,1.89
2022-12-11T16:35:01.219Z,1.89
2022-12-11T16:37:28.245Z,1.88
2022-12-11T16:39:55.199Z,1.89
2022-12-11T16:42:21.916Z,1.91
2022-12-11T16:44:49.174Z,1.96
2022-12-11T16:47:16.095Z,1.98
2022-12-11T16:49:43.419Z,2.02
2022-12-11T16:52:10.546Z,2.00
2022-12-11T16:54:37.300Z,2.02
2022-12-11T16:57:03.937Z,1.98
2022-12-11T16:59:36.638Z,1.99
2022-12-11T17:02:04.257Z,2.01
2022-12-11T17:04:30.885Z,1.98
2022-12-11T17:06:57.493Z,1.93
2022-12-11T17:09:24.264Z,1.92
2022-12-11T17:11:51.202Z,1.97
2022-12-11T17:14:17.847Z,1.97
2022-12-11T17:16:44.520Z,1.99
2022-12-11T17:19:11.443Z,1.98
2022-12-11T17:21:38.171Z,1.98
2022-12-11T17:24:05.012Z,2.01
2022-12-11T17:26:31.573Z,2.04
2022-12-11T17:28:58.263Z,2.04
2022-12-11T17:31:24.924Z,2.04
2022-12-11T17:33:51.679Z,2.06
2022-12-11T17:36:21.157Z,2.11
2022-12-11T17:38:49.556Z,2.12
2022-12-11T17:41:20.466Z,2.13
2022-12-11T17:43:49.393Z,2.14
2022-12-11T17:46:16.280Z,2.15
2022-12-11T17:48:43.286Z,2.13
2022-12-11T17:51:12.937Z,2.13
2022-12-11T17:53:40.268Z,2.14
2022-12-11T17:56:08.436Z,2.10
2022-12-11T17:58:35.557Z,2.14
2022-12-11T18:01:07.301Z,2.15
2022-12-11T18:03:34.279Z,2.17
2022-12-11T18:06:06.450Z,2.17
2022-12-11T18:08:33.195Z,2.14
2022-12-11T18:11:09.585Z,2.13
2022-12-11T18:13:36.306Z,2.14
2022-12-11T18:16:18.083Z,2.20
2022-12-11T18:18:46.374Z,2.21
2022-12-11T18:21:15.332Z,2.20
2022-12-11T18:23:42.057Z,2.17
2022-12-11T18:26:10.996Z,2.17
2022-12-11T18:28:37.653Z,2.16
2022-12-11T18:31:04.711Z,2.18
2022-12-11T18:33:32.375Z,2.20
2022-12-11T18:35:58.997Z,2.16
2022-12-11T18:38:26.766Z,2.14
2022-12-11T18:40:53.368Z,2.05
2022-12-11T18:43:19.963Z,2.02
2022-12-11T18:45:46.618Z,2.04
2022-12-11T18:48:14.502Z,2.00
2022-12-11T18:50:49.371Z,2.00
2022-12-11T18:53:17.264Z,1.98
2022-12-11T18:55:45.712Z,1.98
2022-12-11T18:58:14.223Z,1.96
2022-12-11T19:00:42.144Z,1.96
2022-12-11T19:03:10.107Z,1.95
2022-12-11T19:05:40.435Z,1.89
2022-12-11T19:08:07.058Z,1.88
2022-12-11T19:10:33.710Z,1.88
2022-12-11T19:13:00.884Z,1.91
2022-12-11T19:15:27.842Z,1.94
2022-12-11T19:17:54.701Z,1.97
2022-12-11T19:23:08.049Z,2.03
2022-12-11T19:25:34.763Z,2.03
2022-12-11T19:28:01.502Z,1.99
2022-12-11T19:30:28.220Z,1.92
2022-12-11T19:32:55.115Z,1.86
2022-12-11T19:35:21.729Z,1.84
2022-12-11T19:37:48.276Z,1.80
2022-12-11T19:40:15.134Z,1.84
2022-12-11T19:42:42.433Z,1.80
2022-12-11T19:45:10.873Z,1.78
2022-12-11T19:47:43.031Z,1.69
2022-12-11T19:50:10.228Z,1.68
2022-12-11T19:52:41.479Z,1.64
2022-12-11T19:55:43.901Z,1.62
2022-12-11T19:58:10.795Z,1.55
2022-12-11T20:00:38.132Z,1.53
2022-12-11T20:03:05.035Z,1.52
2022-12-11T20:05:32.691Z,1.51
2022-12-11T20:08:27.360Z,1.45
2022-12-11T20:10:47.271Z,1.48
2022-12-11T20:13:14.203Z,1.46
2022-12-11T20:15:41.589Z,1.44
2022-12-11T20:18:14.032Z,1.41
2022-12-11T20:20:43.561Z,1.41
2022-12-11T20:23:11.217Z,1.41
2022-12-11T20:25:40.173Z,1.42
2022-12-11T20:28:07.002Z,1.34
2022-12-11T20:30:36.571Z,1.32
2022-12-11T20:33:08.951Z,1.25
2022-12-11T20:35:35.647Z,1.21
2022-12-11T20:38:02.649Z,1.25
2022-12-11T20:40:29.326Z,1.24
2022-12-11T20:42:56.001Z,1.26
2022-12-11T20:45:23.359Z,1.23
2022-12-11T20:47:50.225Z,1.20
2022-12-11T20:50:17.822Z,1.20
2022-12-11T20:52:44.850Z,1.21
2022-12-11T20:55:14.314Z,1.24
2022-12-11T20:57:45.085Z,1.24
2022-12-11T21:00:14.778Z,1.26
2022-12-11T21:02:41.480Z,1.26
2022-12-11T21:05:08.363Z,1.26
2022-12-11T21:07:35.058Z,1.25
2022-12-11T21:10:03.422Z,1.24
2022-12-11T21:12:31.865Z,1.21
2022-12-11T21:14:58.590Z,1.13
2022-12-11T21:17:25.263Z,1.15
2022-12-11T21:19:51.995Z,1.18
2022-12-11T21:22:18.666Z,1.20
2022-12-11T21:24:45.479Z,1.21
2022-12-11T21:27:12.069Z,1.19
2022-12-11T21:29:38.750Z,1.16
2022-12-11T21:32:05.656Z,1.09
2022-12-11T21:34:32.472Z,1.12
2022-12-11T21:36:59.423Z,1.11
2022-12-11T21:39:28.406Z,1.06
2022-12-11T21:41:55.203Z,1.06
2022-12-11T21:47:08.749Z,1.00
2022-12-11T21:49:35.334Z,0.99
2022-12-11T21:52:02.656Z,0.99
2022-12-11T21:54:29.252Z,1.00
2022-12-11T21:56:55.928Z,0.92
2022-12-11T21:59:22.612Z,0.90
2022-12-11T22:01:49.204Z,0.88
2022-12-11T22:04:16.140Z,0.84
2022-12-11T22:06:43.530Z,0.86
2022-12-11T22:09:12.629Z,0.87
2022-12-11T22:11:41.140Z,0.82
2022-12-11T22:14:08.399Z,0.77
2022-12-11T22:16:35.615Z,0.78
2022-12-11T22:19:02.226Z,0.74
2022-12-11T22:21:29.082Z,0.78
2022-12-11T22:23:55.886Z,0.72
2022-12-11T22:26:30.043Z,0.77
2022-12-11T22:28:57.259Z,0.74
2022-12-11T22:31:26.458Z,0.77
2022-12-11T22:33:54.052Z,0.77
2022-12-11T22:36:22.417Z,0.75
2022-12-11T22:38:49.386Z,0.78
2022-12-11T22:41:26.068Z,0.77
2022-12-11T22:43:53.549Z,0.76
2022-12-11T22:46:22.506Z,0.76
2022-12-11T22:48:49.399Z,0.73
2022-12-11T22:51:16.289Z,0.68
2022-12-11T22:53:43.158Z,0.59
2022-12-11T22:56:12.440Z,0.63
2022-12-11T22:58:39.483Z,0.59
2022-12-11T23:01:12.207Z,0.60
2022-12-11T23:03:39.098Z,0.57
2022-12-11T23:06:08.264Z,0.61
2022-12-11T23:08:35.556Z,0.64
2022-12-11T23:11:02.661Z,0.67
2022-12-11T23:13:29.385Z,0.62
2022-12-11T23:15:56.117Z,0.60
2022-12-11T23:18:22.836Z,0.62
2022-12-11T23:20:50.058Z,0.65
2022-12-11T23:23:16.723Z,0.64
2022-12-11T23:25:43.363Z,0.70
2022-12-11T23:28:10.010Z,0.71
2022-12-11T23:30:36.706Z,0.74
2022-12-11T23:33:03.473Z,0.77
2022-12-11T23:35:30.087Z,0.78
2022-12-11T23:37:56.875Z,0.74
2022-12-11T23:40:23.503Z,0.72
2022-12-11T23:42:50.231Z,0.73
2022-12-11T23:45:16.977Z,0.76
2022-12-11T23:47:43.687Z,0.78
2022-12-11T23:50:10.368Z,0.81
2022-12-11T23:52:38.053Z,0.81
2022-12-11T23:55:05.619Z,0.76
2022-12-11T23:57:32.401Z,0.71
2022-12-11T23:59:58.996Z,0.74
